createdAt,value
2022-09-10T00:01:59.655Z,28.74
2022-09-10T00:04:27.979Z,27.11
2022-09-10T00:06:55.759Z,28.13
2022-09-10T00:09:23.237Z,26.85
2022-09-10T00:11:50.566Z,28.24
2022-09-10T00:14:19.427Z,28.16
2022-09-10T00:16:46.687Z,27.75
2022-09-10T00:19:14.990Z,28.39
2022-09-10T00:21:42.395Z,27.50
2022-09-10T00:24:09.823Z,28.10
2022-09-10T00:26:40.665Z,28.22
2022-09-10T00:29:09.377Z,28.80
2022-09-10T00:31:37.370Z,27.83
2022-09-10T00:34:05.809Z,27.26
2022-09-10T00:36:36.134Z,28.37
2022-09-10T00:39:05.346Z,29.12
2022-09-10T00:41:33.564Z,28.52
2022-09-10T00:44:02.594Z,28.70
2022-09-10T00:46:33.041Z,29.03
2022-09-10T00:49:02.737Z,28.59
2022-09-10T00:51:32.238Z,28.76
2022-09-10T00:54:00.481Z,28.29
2022-09-10T00:56:28.461Z,28.92
2022-09-10T00:58:56.269Z,28.23
2022-09-10T01:01:23.463Z,28.80
2022-09-10T01:03:50.889Z,28.18
2022-09-10T01:06:18.533Z,27.74
2022-09-10T01:08:45.837Z,28.52
2022-09-10T01:11:28.464Z,28.56
2022-09-10T01:14:22.171Z,28.80
2022-09-10T01:17:08.689Z,28.93
2022-09-10T01:19:54.955Z,28.46
2022-09-10T01:22:25.753Z,29.01
2022-09-10T01:24:55.841Z,28.32
2022-09-10T01:27:27.092Z,28.32
2022-09-10T01:30:03.418Z,28.44
2022-09-10T01:32:52.614Z,28.70
2022-09-10T01:35:30.358Z,28.84
2022-09-10T01:37:59.826Z,28.43
2022-09-10T01:40:30.318Z,28.59
2022-09-10T01:43:03.176Z,28.72
2022-09-10T01:45:33.133Z,28.41
2022-09-10T01:48:19.438Z,28.79
2022-09-10T01:51:00.474Z,29.02
2022-09-10T01:53:31.042Z,29.02
2022-09-10T01:56:16.850Z,28.97
2022-09-10T01:58:45.420Z,29.15
2022-09-10T02:01:32.385Z,28.95
2022-09-10T02:04:06.794Z,29.06
2022-09-10T02:06:36.429Z,28.45
2022-09-10T02:09:05.547Z,29.15
2022-09-10T02:11:43.308Z,28.52
2022-09-10T02:14:14.204Z,28.95
2022-09-10T02:17:09.868Z,27.61
2022-09-10T02:19:37.665Z,28.94
2022-09-10T02:22:05.649Z,29.06
2022-09-10T02:24:32.885Z,28.71
2022-09-10T02:27:00.754Z,28.83
2022-09-10T02:29:29.328Z,29.41
2022-09-10T02:31:56.539Z,29.34
2022-09-10T02:34:24.669Z,29.41
2022-09-10T02:36:51.958Z,29.56
2022-09-10T02:39:20.113Z,29.17
2022-09-10T02:41:48.216Z,29.29
2022-09-10T02:44:16.154Z,29.47
2022-09-10T02:46:43.557Z,29.05
2022-09-10T02:49:11.138Z,29.15
2022-09-10T02:51:39.575Z,29.78
2022-09-10T02:54:07.636Z,29.44
2022-09-10T02:56:35.405Z,29.27
2022-09-10T02:59:04.198Z,29.33
2022-09-10T03:01:32.788Z,29.54
2022-09-10T03:04:03.438Z,29.72
2022-09-10T03:06:32.072Z,29.93
2022-09-10T03:08:59.231Z,29.17
2022-09-10T03:11:27.775Z,29.06
2022-09-10T03:13:55.781Z,29.53
2022-09-10T03:16:24.436Z,29.76
2022-09-10T03:18:52.505Z,29.53
2022-09-10T03:21:21.563Z,29.50
2022-09-10T03:23:49.599Z,29.82
2022-09-10T03:26:22.729Z,30.01
2022-09-10T03:28:50.244Z,29.73
2022-09-10T03:31:20.116Z,30.16
2022-09-10T03:33:49.368Z,29.98
2022-09-10T03:36:18.282Z,30.05
2022-09-10T03:38:48.085Z,30.06
2022-09-10T03:41:15.441Z,29.91
2022-09-10T03:43:42.662Z,30.10
2022-09-10T03:46:12.244Z,29.64
2022-09-10T03:48:45.859Z,29.62
2022-09-10T03:51:13.436Z,29.94
2022-09-10T03:53:41.038Z,30.23
2022-09-10T03:56:13.000Z,29.70
2022-09-10T03:58:41.314Z,30.22
2022-09-10T04:01:10.126Z,29.57
2022-09-10T04:03:42.350Z,29.81
2022-09-10T04:06:10.856Z,29.73
2022-09-10T04:08:38.446Z,30.04
2022-09-10T04:11:08.509Z,29.69
2022-09-10T04:13:35.739Z,30.17
2022-09-10T04:16:03.253Z,30.60
2022-09-10T04:18:34.430Z,30.48
2022-09-10T04:21:03.329Z,30.19
2022-09-10T04:23:30.510Z,30.42
2022-09-10T04:25:58.439Z,29.42
2022-09-10T04:28:26.053Z,30.06
2022-09-10T04:30:54.935Z,30.24
2022-09-10T04:33:25.152Z,30.45
2022-09-10T04:35:53.420Z,30.53
2022-09-10T04:38:20.998Z,29.94
2022-09-10T04:40:49.709Z,30.33
2022-09-10T04:43:17.445Z,30.40
2022-09-10T04:45:45.277Z,30.28
2022-09-10T04:48:13.131Z,29.82
2022-09-10T04:50:54.082Z,30.61
2022-09-10T04:53:28.349Z,30.33
2022-09-10T04:55:57.460Z,28.55
2022-09-10T04:58:24.849Z,29.73
2022-09-10T05:00:52.135Z,29.50
2022-09-10T05:03:20.626Z,30.23
2022-09-10T05:05:48.734Z,30.14
2022-09-10T05:08:16.058Z,28.31
2022-09-10T05:10:50.556Z,29.40
2022-09-10T05:13:18.721Z,30.19
2022-09-10T05:15:46.184Z,30.21
2022-09-10T05:18:16.731Z,29.59
2022-09-10T05:20:45.113Z,29.43
2022-09-10T05:23:12.628Z,30.21
2022-09-10T05:25:43.704Z,30.08
2022-09-10T05:28:11.480Z,30.01
2022-09-10T05:30:38.739Z,28.70
2022-09-10T05:33:06.467Z,28.74
2022-09-10T05:35:34.838Z,29.18
2022-09-10T05:38:02.345Z,29.74
2022-09-10T05:40:32.805Z,28.49
2022-09-10T05:43:00.340Z,28.14
2022-09-10T05:45:27.676Z,29.53
2022-09-10T05:47:57.315Z,29.58
2022-09-10T05:50:24.719Z,29.73
2022-09-10T05:52:53.380Z,29.47
2022-09-10T05:55:21.082Z,29.54
2022-09-10T05:57:49.276Z,29.27
2022-09-10T06:00:19.473Z,28.17
2022-09-10T06:02:57.510Z,29.31
2022-09-10T06:05:29.399Z,28.20
2022-09-10T06:07:57.653Z,26.63
2022-09-10T06:10:25.061Z,27.74
2022-09-10T06:12:52.843Z,27.72
2022-09-10T06:15:21.399Z,27.02
2022-09-10T06:17:54.184Z,27.65
2022-09-10T06:20:21.750Z,27.41
2022-09-10T06:22:49.338Z,27.23
2022-09-10T06:25:16.986Z,28.16
2022-09-10T06:27:44.810Z,27.69
2022-09-10T06:30:12.372Z,27.80
2022-09-10T06:32:43.101Z,27.67
2022-09-10T06:35:10.635Z,26.68
2022-09-10T06:37:38.043Z,27.07
2022-09-10T06:40:08.933Z,27.49
2022-09-10T06:42:37.172Z,27.18
2022-09-10T06:45:18.332Z,27.33
2022-09-10T06:48:38.177Z,27.33
2022-09-10T06:51:12.737Z,27.66
2022-09-10T06:53:41.260Z,27.54
2022-09-10T06:56:12.501Z,27.72
2022-09-10T06:58:40.251Z,27.73
2022-09-10T07:01:13.740Z,27.42
2022-09-10T07:03:44.173Z,27.85
2022-09-10T07:06:17.541Z,27.99
2022-09-10T07:08:47.954Z,27.74
2022-09-10T07:11:15.946Z,27.42
2022-09-10T07:13:44.800Z,26.69
2022-09-10T07:16:12.409Z,27.11
2022-09-10T07:18:39.850Z,27.07
2022-09-10T07:21:10.775Z,27.89
2022-09-10T07:23:44.236Z,27.63
2022-09-10T07:26:14.305Z,27.94
2022-09-10T07:28:48.111Z,27.63
2022-09-10T07:31:18.294Z,27.52
2022-09-10T07:33:47.428Z,27.50
2022-09-10T07:36:16.324Z,26.51
2022-09-10T07:38:45.395Z,25.68
2022-09-10T07:41:14.280Z,26.36
2022-09-10T07:43:43.638Z,26.20
2022-09-10T07:46:13.459Z,27.24
2022-09-10T07:48:41.616Z,27.24
2022-09-10T07:51:11.806Z,27.24
2022-09-10T07:53:47.517Z,27.35
2022-09-10T07:56:18.360Z,26.95
2022-09-10T07:58:45.699Z,27.23
2022-09-10T08:01:13.586Z,27.49
2022-09-10T08:03:40.874Z,27.58
2022-09-10T08:06:10.347Z,27.88
2022-09-10T08:08:39.953Z,27.34
2022-09-10T08:11:12.853Z,27.03
2022-09-10T08:13:44.303Z,27.48
2022-09-10T08:16:15.245Z,26.87
2022-09-10T08:18:47.006Z,27.02
2022-09-10T08:21:16.522Z,27.46
2022-09-10T08:23:51.079Z,27.31
2022-09-10T08:26:23.792Z,27.42
2022-09-10T08:28:53.150Z,26.67
2022-09-10T08:31:22.295Z,26.81
2022-09-10T08:33:56.987Z,26.56
2022-09-10T08:36:26.270Z,26.75
2022-09-10T08:38:59.896Z,26.54
2022-09-10T08:41:38.552Z,27.35
2022-09-10T08:44:12.517Z,27.04
2022-09-10T08:46:40.069Z,26.70
2022-09-10T08:49:12.279Z,27.43
2022-09-10T08:51:46.771Z,27.11
2022-09-10T08:54:20.662Z,27.31
2022-09-10T08:56:48.587Z,26.87
2022-09-10T08:59:21.812Z,27.53
2022-09-10T09:01:52.779Z,27.55
2022-09-10T09:04:38.750Z,26.89
2022-09-10T09:07:16.046Z,26.51
2022-09-10T09:09:54.523Z,25.82
2022-09-10T09:12:32.570Z,26.91
2022-09-10T09:15:00.462Z,26.91
2022-09-10T09:17:34.242Z,26.38
2022-09-10T09:20:25.804Z,26.94
2022-09-10T09:22:55.510Z,27.17
2022-09-10T09:25:47.458Z,27.41
2022-09-10T09:28:35.578Z,27.65
2022-09-10T09:31:09.249Z,27.01
2022-09-10T09:33:38.943Z,27.18
2022-09-10T09:36:08.163Z,26.86
2022-09-10T09:38:41.445Z,26.96
2022-09-10T09:41:32.240Z,26.33
2022-09-10T09:44:16.935Z,26.93
2022-09-10T09:46:45.032Z,27.54
2022-09-10T09:49:16.798Z,27.22
2022-09-10T09:51:47.952Z,27.78
2022-09-10T09:54:56.708Z,27.14
2022-09-10T09:57:14.552Z,27.06
2022-09-10T09:59:42.122Z,26.67
2022-09-10T10:02:12.445Z,27.00
2022-09-10T10:04:42.436Z,26.85
2022-09-10T10:07:11.971Z,26.69
2022-09-10T10:09:42.897Z,27.08
2022-09-10T10:12:20.148Z,26.74
2022-09-10T10:14:47.456Z,26.23
2022-09-10T10:17:22.519Z,25.94
2022-09-10T10:19:59.060Z,25.85
2022-09-10T10:22:27.175Z,26.47
2022-09-10T10:24:54.572Z,26.62
2022-09-10T10:27:33.072Z,26.15
2022-09-10T10:30:18.615Z,26.58
2022-09-10T10:32:58.815Z,26.16
2022-09-10T10:35:32.866Z,26.65
2022-09-10T10:38:17.361Z,25.45
2022-09-10T10:40:45.211Z,26.86
2022-09-10T10:43:18.812Z,26.07
2022-09-10T10:46:01.307Z,26.57
2022-09-10T10:48:37.773Z,26.92
2022-09-10T10:51:11.828Z,26.78
2022-09-10T10:53:49.464Z,27.06
2022-09-10T10:56:36.214Z,27.25
2022-09-10T10:59:04.559Z,26.85
2022-09-10T11:01:35.253Z,27.36
2022-09-10T11:04:02.601Z,27.96
2022-09-10T11:06:35.281Z,27.37
2022-09-10T11:09:06.330Z,27.88
2022-09-10T11:11:37.221Z,27.80
2022-09-10T11:14:13.396Z,28.52
2022-09-10T11:16:49.793Z,28.32
2022-09-10T11:19:25.591Z,28.43
2022-09-10T11:21:59.826Z,28.06
2022-09-10T11:24:34.108Z,28.66
2022-09-10T11:27:11.705Z,28.48
2022-09-10T11:29:50.033Z,27.96
2022-09-10T11:32:23.411Z,27.92
2022-09-10T11:35:09.518Z,28.20
2022-09-10T11:37:51.921Z,27.69
2022-09-10T11:40:27.579Z,28.33
2022-09-10T11:42:56.835Z,28.30
2022-09-10T11:45:32.373Z,27.84
2022-09-10T11:48:06.040Z,27.78
2022-09-10T11:50:40.055Z,27.95
2022-09-10T11:53:11.921Z,27.88
2022-09-10T11:55:42.887Z,28.30
2022-09-10T11:58:20.952Z,28.35
2022-09-10T12:01:01.040Z,28.20
2022-09-10T12:03:37.380Z,28.49
2022-09-10T12:06:16.366Z,28.60
2022-09-10T12:09:02.251Z,28.00
2022-09-10T12:11:29.928Z,27.95
2022-09-10T12:13:57.774Z,27.80
2022-09-10T12:16:29.518Z,27.98
2022-09-10T12:18:58.824Z,27.83
2022-09-10T12:21:26.043Z,27.96
2022-09-10T12:23:54.389Z,27.96
2022-09-10T12:26:22.264Z,27.93
2022-09-10T12:28:49.662Z,28.61
2022-09-10T12:31:18.228Z,28.05
2022-09-10T12:33:45.419Z,28.98
2022-09-10T12:36:14.298Z,28.66
2022-09-10T12:39:00.046Z,28.72
2022-09-10T12:41:27.473Z,28.40
2022-09-10T12:43:56.086Z,28.63
2022-09-10T12:46:25.793Z,28.53
2022-09-10T12:48:56.139Z,28.38
2022-09-10T12:51:42.039Z,28.61
2022-09-10T12:54:24.740Z,28.63
2022-09-10T12:57:12.883Z,28.75
2022-09-10T12:59:58.959Z,28.74
2022-09-10T13:02:35.004Z,29.02
2022-09-10T13:05:06.300Z,29.04
2022-09-10T13:07:40.337Z,28.93
2022-09-10T13:10:08.001Z,29.29
2022-09-10T13:12:36.483Z,28.49
2022-09-10T13:15:04.979Z,28.91
2022-09-10T13:17:39.836Z,28.96
2022-09-10T13:20:22.101Z,28.36
2022-09-10T13:23:04.403Z,28.96
2022-09-10T13:25:40.202Z,28.63
2022-09-10T13:28:25.873Z,29.09
2022-09-10T13:31:19.326Z,29.41
2022-09-10T13:33:49.402Z,28.63
2022-09-10T13:36:24.741Z,28.86
2022-09-10T13:38:55.653Z,29.19
2022-09-10T13:41:43.617Z,28.68
2022-09-10T13:44:33.523Z,28.54
2022-09-10T13:47:04.340Z,28.51
2022-09-10T13:49:51.596Z,28.55
2022-09-10T13:52:21.838Z,28.86
2022-09-10T13:54:51.644Z,28.52
2022-09-10T13:57:25.973Z,29.02
2022-09-10T13:59:59.559Z,29.05
2022-09-10T14:02:47.595Z,28.67
2022-09-10T14:05:26.286Z,28.57
2022-09-10T14:07:55.476Z,28.26
2022-09-10T14:10:22.820Z,28.74
2022-09-10T14:12:50.863Z,28.70
2022-09-10T14:15:20.781Z,29.15
2022-09-10T14:17:50.787Z,28.72
2022-09-10T14:20:25.940Z,29.22
2022-09-10T14:23:16.631Z,29.13
2022-09-10T14:25:45.121Z,29.07
2022-09-10T14:28:26.050Z,28.65
2022-09-10T14:31:13.905Z,29.07
2022-09-10T14:33:41.339Z,28.75
2022-09-10T14:36:16.285Z,28.88
2022-09-10T14:38:45.905Z,28.58
2022-09-10T14:41:21.828Z,29.25
2022-09-10T14:44:09.058Z,29.22
2022-09-10T14:46:51.762Z,29.23
2022-09-10T14:49:25.680Z,29.19
2022-09-10T14:51:53.236Z,29.10
2022-09-10T14:54:20.547Z,28.89
2022-09-10T14:56:48.434Z,29.04
2022-09-10T14:59:24.426Z,29.32
2022-09-10T15:01:51.904Z,28.73
2022-09-10T15:04:23.739Z,29.22
2022-09-10T15:06:57.650Z,29.47
2022-09-10T15:09:26.096Z,29.53
2022-09-10T15:11:59.124Z,29.36
2022-09-10T15:14:26.652Z,29.46
2022-09-10T15:16:54.168Z,29.63
2022-09-10T15:19:21.959Z,29.22
2022-09-10T15:21:49.592Z,29.41
2022-09-10T15:24:18.430Z,29.04
2022-09-10T15:26:45.872Z,28.81
2022-09-10T15:29:14.449Z,28.85
2022-09-10T15:31:42.380Z,28.63
2022-09-10T15:34:10.736Z,29.19
2022-09-10T15:36:40.011Z,29.27
2022-09-10T15:39:08.280Z,29.34
2022-09-10T15:41:35.543Z,29.12
2022-09-10T15:44:03.412Z,29.36
2022-09-10T15:46:30.731Z,29.26
2022-09-10T15:48:59.535Z,29.18
2022-09-10T15:51:27.334Z,29.18
2022-09-10T15:53:54.697Z,29.33
2022-09-10T15:56:23.185Z,29.52
2022-09-10T15:58:52.015Z,29.70
2022-09-10T16:01:19.348Z,29.23
2022-09-10T16:03:51.788Z,29.28
2022-09-10T16:06:19.837Z,29.43
2022-09-10T16:08:50.834Z,29.36
2022-09-10T16:11:18.256Z,29.43
2022-09-10T16:13:45.729Z,29.57
2022-09-10T16:16:16.042Z,29.08
2022-09-10T16:18:43.844Z,29.41
2022-09-10T16:21:13.044Z,29.73
2022-09-10T16:23:41.493Z,29.98
2022-09-10T16:26:09.768Z,29.62
2022-09-10T16:28:37.591Z,29.56
2022-09-10T16:31:15.553Z,29.35
2022-09-10T16:33:43.578Z,29.85
2022-09-10T16:36:11.045Z,29.41
2022-09-10T16:38:39.228Z,29.41
2022-09-10T16:41:07.089Z,29.33
2022-09-10T16:43:38.355Z,29.41
2022-09-10T16:46:06.676Z,29.56
2022-09-10T16:48:34.455Z,29.60
2022-09-10T16:51:09.339Z,30.09
2022-09-10T16:53:36.957Z,29.48
2022-09-10T16:56:05.281Z,29.15
2022-09-10T16:58:35.951Z,29.74
2022-09-10T17:01:04.641Z,29.56
2022-09-10T17:03:31.905Z,29.34
2022-09-10T17:05:59.448Z,28.95
2022-09-10T17:08:27.576Z,28.34
2022-09-10T17:10:55.557Z,28.59
2022-09-10T17:13:22.792Z,28.62
2022-09-10T17:15:50.803Z,28.08
2022-09-10T17:18:18.011Z,28.43
2022-09-10T17:20:48.306Z,28.79
2022-09-10T17:23:18.669Z,28.64
2022-09-10T17:25:45.861Z,28.49
2022-09-10T17:28:13.132Z,28.46
2022-09-10T17:30:40.449Z,28.25
2022-09-10T17:33:07.652Z,28.69
2022-09-10T17:35:35.027Z,28.48
2022-09-10T17:38:02.206Z,28.56
2022-09-10T17:40:29.654Z,28.33
2022-09-10T17:42:56.885Z,28.46
2022-09-10T17:45:24.403Z,28.46
2022-09-10T17:47:51.732Z,28.76
2022-09-10T17:50:19.095Z,28.04
2022-09-10T17:52:46.552Z,27.16
2022-09-10T17:55:13.873Z,27.89
2022-09-10T17:57:41.154Z,28.17
2022-09-10T18:00:08.869Z,28.25
2022-09-10T18:02:36.176Z,28.40
2022-09-10T18:05:05.609Z,28.28
2022-09-10T18:07:32.929Z,28.48
2022-09-10T18:10:00.111Z,28.35
2022-09-10T18:12:27.415Z,28.40
2022-09-10T18:14:54.607Z,28.50
2022-09-10T18:17:22.531Z,28.82
2022-09-10T18:19:50.395Z,28.46
2022-09-10T18:22:17.596Z,28.73
2022-09-10T18:24:45.064Z,28.92
2022-09-10T18:27:12.494Z,29.06
2022-09-10T18:29:41.576Z,28.90
2022-09-10T18:32:09.867Z,28.83
2022-09-10T18:34:37.143Z,28.66
2022-09-10T18:37:04.667Z,28.94
2022-09-10T18:39:34.115Z,29.05
2022-09-10T18:42:01.693Z,29.09
2022-09-10T18:44:37.036Z,28.80
2022-09-10T18:47:17.677Z,28.94
2022-09-10T18:49:45.364Z,28.75
2022-09-10T18:52:13.832Z,28.48
2022-09-10T18:54:46.320Z,29.06
2022-09-10T18:57:13.956Z,28.19
2022-09-10T18:59:41.137Z,28.69
2022-09-10T19:02:10.339Z,28.96
2022-09-10T19:04:54.404Z,28.20
2022-09-10T19:07:25.245Z,28.67
2022-09-10T19:09:52.601Z,28.62
2022-09-10T19:12:19.881Z,28.22
2022-09-10T19:14:47.073Z,28.56
2022-09-10T19:17:15.889Z,28.70
2022-09-10T19:19:43.109Z,28.69
2022-09-10T19:22:13.455Z,28.68
2022-09-10T19:24:56.413Z,28.63
2022-09-10T19:27:24.409Z,28.71
2022-09-10T19:29:52.060Z,28.81
2022-09-10T19:32:22.404Z,28.94
2022-09-10T19:34:50.433Z,28.42
2022-09-10T19:37:17.696Z,28.80
2022-09-10T19:39:45.493Z,28.57
2022-09-10T19:42:13.185Z,28.84
2022-09-10T19:44:40.475Z,28.80
2022-09-10T19:47:07.850Z,29.10
2022-09-10T19:49:35.373Z,28.67
2022-09-10T19:52:04.379Z,29.25
2022-09-10T19:54:31.956Z,29.07
2022-09-10T19:56:59.132Z,28.83
2022-09-10T19:59:26.555Z,28.55
2022-09-10T20:01:53.887Z,28.88
2022-09-10T20:04:21.260Z,28.78
2022-09-10T20:06:50.439Z,28.79
2022-09-10T20:09:17.811Z,28.57
2022-09-10T20:11:45.370Z,28.82
2022-09-10T20:14:13.841Z,28.82
2022-09-10T20:16:42.930Z,29.14
2022-09-10T20:19:11.329Z,29.05
2022-09-10T20:21:38.580Z,29.31
2022-09-10T20:24:07.013Z,28.80
2022-09-10T20:26:35.610Z,29.24
2022-09-10T20:29:05.284Z,29.30
2022-09-10T20:31:34.174Z,28.96
2022-09-10T20:34:05.854Z,28.96
2022-09-10T20:36:34.437Z,29.25
2022-09-10T20:39:02.288Z,29.18
2022-09-10T20:41:30.642Z,29.03
2022-09-10T20:43:59.212Z,29.28
2022-09-10T20:46:27.990Z,28.90
2022-09-10T20:49:02.922Z,29.28
2022-09-10T20:51:31.822Z,29.14
2022-09-10T20:53:59.204Z,28.88
2022-09-10T20:56:26.503Z,29.26
2022-09-10T20:58:53.689Z,28.90
2022-09-10T21:01:22.485Z,29.55
2022-09-10T21:03:50.529Z,29.64
2022-09-10T21:06:19.710Z,29.05
2022-09-10T21:08:48.039Z,29.25
2022-09-10T21:11:16.899Z,29.39
2022-09-10T21:13:45.315Z,29.30
2022-09-10T21:16:14.135Z,29.83
2022-09-10T21:18:42.661Z,29.68
2022-09-10T21:21:11.681Z,29.52
2022-09-10T21:23:58.207Z,29.58
2022-09-10T21:26:27.013Z,29.49
2022-09-10T21:28:56.371Z,29.69
2022-09-10T21:31:24.289Z,29.74
2022-09-10T21:33:51.555Z,30.04
2022-09-10T21:36:20.344Z,30.01
2022-09-10T21:38:48.356Z,30.03
2022-09-10T21:41:16.853Z,29.92
2022-09-10T21:43:45.065Z,29.80
2022-09-10T21:46:13.670Z,30.28
2022-09-10T21:48:42.362Z,29.81
2022-09-10T21:51:14.161Z,30.42
2022-09-10T21:53:42.184Z,29.80
2022-09-10T21:56:11.283Z,30.43
2022-09-10T21:58:38.940Z,30.26
2022-09-10T22:01:13.892Z,30.42
2022-09-10T22:03:41.608Z,30.12
2022-09-10T22:06:08.806Z,30.25
2022-09-10T22:08:36.597Z,30.49
2022-09-10T22:11:08.296Z,30.31
2022-09-10T22:13:37.846Z,30.01
2022-09-10T22:16:05.912Z,30.60
2022-09-10T22:18:34.281Z,30.45
2022-09-10T22:21:02.206Z,30.16
2022-09-10T22:23:37.076Z,30.38
2022-09-10T22:26:08.840Z,30.60
2022-09-10T22:28:36.995Z,30.62
2022-09-10T22:31:14.867Z,30.41
2022-09-10T22:33:43.406Z,30.72
2022-09-10T22:36:10.736Z,30.32
2022-09-10T22:38:38.165Z,30.30
2022-09-10T22:41:05.773Z,30.51
2022-09-10T22:43:33.088Z,30.43
2022-09-10T22:46:00.369Z,30.38
2022-09-10T22:48:27.771Z,30.55
2022-09-10T22:50:55.444Z,30.84
2022-09-10T22:53:22.812Z,30.37
2022-09-10T22:55:50.980Z,30.43
2022-09-10T22:58:19.059Z,30.52
2022-09-10T23:00:46.256Z,30.37
2022-09-10T23:03:13.589Z,30.73
2022-09-10T23:05:40.901Z,30.77
2022-09-10T23:08:08.220Z,30.50
2022-09-10T23:10:35.447Z,30.82
2022-09-10T23:13:02.813Z,30.87
2022-09-10T23:15:31.035Z,30.77
2022-09-10T23:17:59.874Z,30.77
2022-09-10T23:20:27.185Z,30.73
2022-09-10T23:22:54.532Z,30.98
2022-09-10T23:25:21.841Z,30.82
2022-09-10T23:27:51.204Z,30.90
2022-09-10T23:30:18.637Z,30.75
2022-09-10T23:32:46.612Z,30.70
2022-09-10T23:35:13.827Z,30.90
2022-09-10T23:37:42.255Z,30.78
2022-09-10T23:40:12.009Z,30.64
2022-09-10T23:42:39.534Z,30.34
2022-09-10T23:45:07.198Z,30.79
2022-09-10T23:47:34.809Z,30.86
2022-09-10T23:50:02.239Z,30.86
2022-09-10T23:52:29.665Z,30.99
2022-09-10T23:54:56.953Z,30.89
2022-09-10T23:57:24.382Z,30.98
2022-09-10T23:59:51.571Z,31.23
